Time;durP1;ratioP1;P1;durP2;ratioP2;P2;SDS_P1;SDS_P2;PMS_P1;PMS_P2;Temp;Humidity;BMP_temperature;BMP_pressure;BME280_temperature;BME280_humidity;BME280_pressure;Samples;Min_cycle;Max_cycle;Signal;HPM_P1;HPM_P2
2023/04/14 00:01:59;;;;;;;10.77;4.22;;;;;;;2.53;50.79;94757.78;5010406;28;20030;-71
2023/04/14 00:04:25;;;;;;;10.77;6.85;;;;;;;2.58;51.56;94746.81;5008347;28;20088;-71
2023/04/14 00:06:51;;;;;;;11.38;5.90;;;;;;;2.60;51.51;94740.44;4993218;28;20041;-71
2023/04/14 00:09:16;;;;;;;12.18;5.35;;;;;;;2.63;50.44;94745.38;5009877;28;20029;-71
2023/04/14 00:11:42;;;;;;;19.63;7.35;;;;;;;2.71;52.34;94742.00;5023898;28;20075;-71
2023/04/14 00:14:07;;;;;;;12.85;7.22;;;;;;;2.79;52.18;94743.88;5013442;28;20147;-71
2023/04/14 00:16:33;;;;;;;11.50;6.53;;;;;;;2.84;51.16;94746.06;5013781;28;20169;-71
2023/04/14 00:18:58;;;;;;;13.30;6.53;;;;;;;2.85;51.15;94743.28;5015008;28;20076;-71
2023/04/14 00:21:25;;;;;;;9.75;4.32;;;;;;;2.93;49.70;94745.16;5006410;28;20045;-71
2023/04/14 00:23:51;;;;;;;9.68;3.95;;;;;;;2.99;50.21;94739.28;5021248;28;20107;-71
2023/04/14 00:26:16;;;;;;;7.85;4.28;;;;;;;3.08;50.90;94745.44;5026938;28;20358;-71
2023/04/14 00:28:41;;;;;;;8.82;4.82;;;;;;;3.19;49.91;94749.63;5019132;28;20029;-71
2023/04/14 00:31:10;;;;;;;9.82;3.63;;;;;;;3.26;49.32;94744.56;5013394;28;20568;-72
2023/04/14 00:33:35;;;;;;;6.72;3.53;;;;;;;3.37;49.74;94751.41;5012613;28;20575;-71
2023/04/14 00:36:01;;;;;;;4.78;2.60;;;;;;;3.33;48.24;94748.25;5016667;28;20036;-71
2023/04/14 00:38:26;;;;;;;7.63;4.53;;;;;;;3.23;48.06;94745.72;5013052;28;20113;-71
2023/04/14 00:40:51;;;;;;;7.65;3.72;;;;;;;3.27;47.57;94747.06;5019047;28;20060;-71
2023/04/14 00:43:18;;;;;;;10.48;5.18;;;;;;;3.32;49.41;94749.22;5015384;28;20195;-71
2023/04/14 00:45:44;;;;;;;8.98;5.22;;;;;;;3.37;49.94;94751.41;5015532;28;20045;-71
2023/04/14 00:48:09;;;;;;;11.65;7.05;;;;;;;3.33;49.86;94748.25;5026618;28;20045;-71
2023/04/14 00:50:38;;;;;;;9.82;5.22;;;;;;;3.33;48.40;94740.34;5012220;28;20053;-71
2023/04/14 00:53:03;;;;;;;9.93;6.57;;;;;;;3.38;49.25;94742.53;5016231;28;20108;-71
2023/04/14 00:55:29;;;;;;;11.88;6.97;;;;;;;3.39;49.44;94739.75;5011385;28;20564;-72
2023/04/14 00:57:55;;;;;;;10.10;4.45;;;;;;;3.41;48.66;94747.50;5011749;28;20325;-72
2023/04/14 01:00:20;;;;;;;10.70;5.85;;;;;;;3.40;49.21;94748.44;5015051;28;20052;-72
2023/04/14 01:02:45;;;;;;;6.10;2.55;;;;;;;3.43;46.90;94748.16;5029543;22;20041;-74
2023/04/14 01:05:11;;;;;;;6.13;2.35;;;;;;;3.56;44.69;94760.94;5039650;28;20045;-73
2023/04/14 01:07:36;;;;;;;8.40;2.30;;;;;;;3.51;45.06;94765.84;5028477;28;20063;-73
2023/04/14 01:10:02;;;;;;;5.88;2.58;;;;;;;3.12;46.30;94765.22;5029991;28;20076;-74
2023/04/14 01:12:52;;;;;;;13.63;7.35;;;;;;;3.10;46.06;94771.59;5044766;28;20021;-73
2023/04/14 01:15:26;;;;;;;20.05;11.45;;;;;;;3.03;47.27;94768.75;5044035;28;20040;-73
2023/04/14 01:18:04;;;;;;;18.73;9.55;;;;;;;3.09;48.57;94772.59;5045901;28;20556;-74
2023/04/14 01:20:36;;;;;;;11.90;6.25;;;;;;;3.11;48.46;94768.81;5049879;28;20056;-73
2023/04/14 01:23:21;;;;;;;15.68;10.13;;;;;;;3.06;51.16;94762.38;5044907;28;20056;-73
2023/04/14 01:25:52;;;;;;;19.63;11.23;;;;;;;3.10;50.44;94763.72;5045211;28;20113;-74
2023/04/14 01:28:43;;;;;;;14.07;7.75;;;;;;;2.95;48.69;94756.34;5044783;28;20036;-73
2023/04/14 01:31:25;;;;;;;16.13;8.45;;;;;;;2.84;49.45;94746.91;5038471;28;20353;-73
2023/04/14 01:34:10;;;;;;;17.50;10.00;;;;;;;2.65;49.97;94748.69;5030844;28;20049;-73
2023/04/14 01:36:45;;;;;;;28.90;16.85;;;;;;;2.62;49.96;94748.19;5033986;28;20138;-73
2023/04/14 01:39:13;;;;;;;33.40;19.08;;;;;;;2.59;50.70;94743.22;5044553;28;20653;-74
2023/04/14 01:41:41;;;;;;;27.08;15.73;;;;;;;2.50;50.56;94758.91;5011097;28;20081;-74
2023/04/14 01:44:06;;;;;;;23.60;14.37;;;;;;;2.46;52.32;94746.19;5034179;28;20040;-73
2023/04/14 01:46:33;;;;;;;17.50;9.32;;;;;;;2.35;51.37;94742.81;5011247;28;20067;-73
2023/04/14 01:48:58;;;;;;;20.73;12.57;;;;;;;2.27;51.88;94750.59;5028327;28;20386;-73
2023/04/14 01:51:23;;;;;;;19.98;10.32;;;;;;;2.28;51.77;94741.75;5011041;28;20101;-74
2023/04/14 01:53:49;;;;;;;18.75;10.95;;;;;;;2.29;51.52;94755.72;5014347;28;20063;-74
2023/04/14 01:56:14;;;;;;;11.38;4.45;;;;;;;2.22;49.98;94753.66;5025779;28;20057;-74
2023/04/14 01:58:40;;;;;;;21.83;13.68;;;;;;;2.20;52.32;94752.16;5025159;28;20569;-73
2023/04/14 02:01:06;;;;;;;17.15;9.30;;;;;;;2.12;51.18;94756.34;5027197;28;20032;-74
2023/04/14 02:03:32;;;;;;;14.98;8.52;;;;;;;2.11;50.38;94746.81;5041351;28;20782;-74
2023/04/14 02:05:57;;;;;;;7.88;3.40;;;;;;;2.08;46.02;94752.34;5039022;28;20044;-73
2023/04/14 02:08:22;;;;;;;14.77;8.63;;;;;;;2.07;50.80;94758.59;5023250;28;20039;-74
2023/04/14 02:10:50;;;;;;;11.98;5.97;;;;;;;2.02;48.06;94768.72;5022442;28;20075;-74
2023/04/14 02:13:17;;;;;;;14.35;8.85;;;;;;;2.16;48.82;94763.94;5007314;28;20058;-73
2023/04/14 02:15:42;;;;;;;13.80;7.22;;;;;;;2.11;48.48;94765.19;5019030;28;20068;-73
2023/04/14 02:18:08;;;;;;;12.93;6.38;;;;;;;1.89;48.17;94769.03;5022978;28;20069;-74
2023/04/14 02:20:33;;;;;;;12.38;6.28;;;;;;;2.00;49.35;94765.38;5040314;28;20046;-73
2023/04/14 02:22:59;;;;;;;5.68;2.78;;;;;;;2.01;45.10;94761.81;5008101;28;20514;-74
2023/04/14 02:25:28;;;;;;;16.95;9.18;;;;;;;1.88;52.27;94776.06;5023925;28;20088;-73
2023/04/14 02:27:55;;;;;;;;;;;;;;;1.80;52.08;94765.47;5023466;28;20040;-73
2023/04/14 02:30:23;;;;;;;10.23;5.30;;;;;;;1.69;47.69;94766.47;5039730;28;19958;-73
2023/04/14 02:32:59;;;;;;;9.13;4.25;;;;;;;1.57;51.58;94775.50;5012729;28;20412;-73
2023/04/14 02:35:25;;;;;;;5.85;3.20;;;;;;;1.54;48.79;94776.63;5023557;28;20058;-73
2023/04/14 02:37:53;;;;;;;10.77;4.75;;;;;;;1.49;51.11;94776.16;5009170;28;20500;-73
2023/04/14 02:40:25;;;;;;;7.97;4.13;;;;;;;1.48;49.47;94779.75;5045270;28;20466;-74
2023/04/14 02:42:55;;;;;;;10.15;5.03;;;;;;;1.37;48.93;94792.06;4996904;28;20541;-73
2023/04/14 02:45:21;;;;;;;5.88;3.25;;;;;;;1.17;50.14;94795.69;5039613;28;20044;-73
2023/04/14 02:47:51;;;;;;;11.73;6.00;;;;;;;1.17;51.73;94798.31;5022650;28;20646;-73
2023/04/14 02:50:17;;;;;;;9.65;5.53;;;;;;;1.23;51.73;94795.94;5037573;28;20482;-73
2023/04/14 02:52:42;;;;;;;14.32;6.93;;;;;;;1.29;52.84;94799.00;5020894;28;20081;-74
2023/04/14 02:55:08;;;;;;;11.60;7.05;;;;;;;1.32;52.93;94793.44;5021618;28;20104;-73
2023/04/14 02:57:33;;;;;;;11.13;5.57;;;;;;;1.24;51.47;94796.78;5038497;28;20038;-73
2023/04/14 02:59:59;;;;;;;12.50;7.20;;;;;;;1.19;53.82;94812.13;5038697;28;20051;-73
2023/04/14 03:02:24;;;;;;;12.80;5.97;;;;;;;1.14;53.21;94804.66;5038598;28;20553;-74
2023/04/14 03:04:52;;;;;;;10.80;6.53;;;;;;;1.06;54.43;94807.16;5038612;28;20084;-73
2023/04/14 03:07:17;;;;;;;10.90;6.40;;;;;;;1.00;56.27;94802.44;5037519;28;20711;-73
2023/04/14 03:09:43;;;;;;;12.57;5.25;;;;;;;1.20;54.48;94816.41;5005600;28;20044;-73
2023/04/14 03:12:11;;;;;;;8.77;3.55;;;;;;;1.22;53.95;94812.66;5038596;28;20072;-73
2023/04/14 03:14:37;;;;;;;10.60;6.93;;;;;;;1.36;56.34;94805.31;5038288;28;20172;-73
2023/04/14 03:17:02;;;;;;;9.57;5.20;;;;;;;1.52;55.28;94815.25;5022313;28;20052;-74
2023/04/14 03:19:27;;;;;;;9.95;4.07;;;;;;;1.58;51.60;94809.47;5037819;28;20563;-73
2023/04/14 03:21:54;;;;;;;12.95;6.22;;;;;;;1.61;54.68;94808.34;5020851;28;20047;-75
2023/04/14 03:24:29;;;;;;;13.32;5.68;;;;;;;1.65;54.93;94801.00;5038644;28;20051;-76
2023/04/14 03:26:57;;;;;;;9.48;6.13;;;;;;;1.77;55.05;94801.69;5022513;28;20535;-76
2023/04/14 03:29:26;;;;;;;10.95;5.25;;;;;;;1.80;54.58;94804.84;5021113;28;20518;-76
2023/04/14 03:31:53;;;;;;;9.75;5.65;;;;;;;1.78;54.97;94798.91;5019852;28;20676;-75
2023/04/14 03:34:19;;;;;;;9.30;5.47;;;;;;;1.84;54.15;94797.53;5006873;28;20061;-75
2023/04/14 03:36:45;;;;;;;9.30;4.85;;;;;;;1.84;52.42;94795.72;5003708;28;20043;-74
2023/04/14 03:39:13;;;;;;;10.20;4.70;;;;;;;1.86;52.85;94801.66;5021642;28;20047;-74
2023/04/14 03:41:39;;;;;;;11.07;5.10;;;;;;;1.85;54.04;94792.13;5021850;28;20418;-73
2023/04/14 03:44:05;;;;;;;9.82;4.63;;;;;;;1.85;54.21;94792.13;5014051;28;20040;-73
2023/04/14 03:46:30;;;;;;;8.15;4.97;;;;;;;1.81;53.60;94790.75;5021847;28;20078;-73
2023/04/14 03:48:57;;;;;;;10.07;5.68;;;;;;;1.81;53.29;94788.13;5021215;28;20045;-73
2023/04/14 03:51:22;;;;;;;9.75;5.28;;;;;;;1.80;54.37;94783.84;5004441;28;20081;-74
2023/04/14 03:53:48;;;;;;;8.65;4.68;;;;;;;1.81;53.29;94782.06;5037634;28;20141;-73
2023/04/14 03:56:13;;;;;;;8.75;3.72;;;;;;;1.84;51.74;94787.03;5038245;28;20039;-73
2023/04/14 03:58:40;;;;;;;7.72;3.50;;;;;;;1.47;47.86;94786.78;5038479;28;20545;-74
2023/04/14 04:01:06;;;;;;;9.00;2.22;;;;;;;1.28;47.54;94798.16;5037555;28;20045;-73
2023/04/14 04:03:33;;;;;;;4.20;1.77;;;;;;;1.33;47.13;94788.06;5037493;28;20100;-74
2023/04/14 04:05:58;;;;;;;4.53;1.80;;;;;;;1.42;46.41;94786.41;5020895;28;20076;-73
2023/04/14 04:08:24;;;;;;;6.00;2.30;;;;;;;1.06;48.37;94792.22;5038338;28;20552;-73
2023/04/14 04:10:49;;;;;;;8.43;4.03;;;;;;;1.03;49.39;94787.28;5020770;28;20186;-73
2023/04/14 04:13:16;;;;;;;11.68;4.28;;;;;;;0.74;51.04;94793.34;5021528;28;20064;-73
2023/04/14 04:15:41;;;;;;;5.20;2.70;;;;;;;0.77;49.95;94785.22;5037446;28;20070;-74
2023/04/14 04:18:07;;;;;;;10.63;3.90;;;;;;;0.76;55.16;94794.03;5037728;28;20066;-73
2023/04/14 04:20:33;;;;;;;9.13;3.63;;;;;;;0.73;53.53;94794.31;5037275;28;20050;-73
2023/04/14 04:22:59;;;;;;;7.40;3.50;;;;;;;0.91;55.08;94796.25;5021682;28;20554;-73
2023/04/14 04:25:24;;;;;;;8.48;3.00;;;;;;;0.75;50.72;94799.41;5021223;28;20057;-73
2023/04/14 04:27:50;;;;;;;8.90;2.80;;;;;;;0.65;50.71;94797.59;5037866;28;20077;-73
2023/04/14 04:30:16;;;;;;;9.00;2.80;;;;;;;0.79;51.46;94793.75;5020852;28;20097;-73
2023/04/14 04:32:41;;;;;;;7.03;3.85;;;;;;;1.12;53.41;94798.72;5021142;28;20308;-73
2023/04/14 04:35:07;;;;;;;7.65;2.50;;;;;;;1.08;48.94;94800.81;5020369;28;20063;-73
2023/04/14 04:37:33;;;;;;;10.45;2.53;;;;;;;0.93;51.45;94802.19;5021277;28;20318;-73
2023/04/14 04:39:59;;;;;;;5.82;2.35;;;;;;;0.47;50.81;94800.06;5004787;28;20564;-73
2023/04/14 04:42:24;;;;;;;7.32;2.75;;;;;;;0.33;53.54;94803.88;5015068;28;20102;-73
2023/04/14 04:44:50;;;;;;;6.70;3.63;;;;;;;0.89;53.98;94811.28;5039254;28;20052;-73
2023/04/14 04:47:15;;;;;;;10.40;4.72;;;;;;;1.22;55.08;94809.19;5020944;28;20097;-74
2023/04/14 04:49:41;;;;;;;8.50;4.63;;;;;;;1.38;54.31;94813.88;5020671;28;20036;-73
2023/04/14 04:52:06;;;;;;;7.25;4.22;;;;;;;1.41;53.29;94808.38;5021196;28;20033;-74
2023/04/14 04:54:31;;;;;;;7.18;4.07;;;;;;;1.41;52.71;94808.38;5037367;28;20063;-73
2023/04/14 04:56:57;;;;;;;7.82;3.90;;;;;;;1.43;52.38;94800.34;5021401;28;20041;-73
2023/04/14 04:59:23;;;;;;;9.52;4.00;;;;;;;1.39;50.14;94809.47;5038768;28;20077;-73
2023/04/14 05:01:48;;;;;;;7.22;3.83;;;;;;;1.39;52.16;94806.84;5036258;28;20040;-74
2023/04/14 05:04:14;;;;;;;7.60;3.30;;;;;;;1.34;49.69;94807.28;5037572;28;20413;-74
2023/04/14 05:06:39;;;;;;;6.13;3.17;;;;;;;1.51;53.41;94808.34;5037348;28;20037;-74
2023/04/14 05:09:05;;;;;;;8.38;2.40;;;;;;;1.26;47.92;94813.19;5039370;28;20037;-74
2023/04/14 05:11:31;;;;;;;6.88;3.65;;;;;;;1.45;52.17;94814.16;5037227;28;20037;-73
2023/04/14 05:13:57;;;;;;;7.03;3.30;;;;;;;1.64;50.85;94804.63;5004140;28;20051;-74
2023/04/14 05:16:22;;;;;;;7.90;3.30;;;;;;;1.87;51.85;94808.56;5006657;28;20039;-74
2023/04/14 05:18:48;;;;;;;5.82;2.60;;;;;;;2.07;52.51;94802.38;5040606;28;20061;-74
2023/04/14 05:21:13;;;;;;;5.22;2.53;;;;;;;2.19;50.08;94803.03;5041019;28;20358;-73
2023/04/14 05:23:42;;;;;;;6.85;2.65;;;;;;;2.06;50.52;94804.19;5007013;28;20055;-74
2023/04/14 05:26:08;;;;;;;6.63;3.63;;;;;;;2.15;53.06;94805.16;5039917;28;20071;-73
2023/04/14 05:28:33;;;;;;;6.88;3.38;;;;;;;2.28;52.87;94804.78;5024292;28;20093;-73
2023/04/14 05:30:59;;;;;;;9.05;3.70;;;;;;;2.37;52.92;94809.19;5039504;28;20052;-73
2023/04/14 05:33:25;;;;;;;7.95;3.50;;;;;;;2.69;52.00;94808.84;5041984;28;20079;-73
2023/04/14 05:35:50;;;;;;;7.40;3.40;;;;;;;2.86;51.58;94812.47;5041209;28;20497;-73
2023/04/14 05:38:16;;;;;;;8.30;3.40;;;;;;;2.85;49.69;94814.28;5040789;28;20074;-74
2023/04/14 05:40:42;;;;;;;8.88;2.95;;;;;;;2.55;46.78;94813.63;5023050;28;20477;-73
2023/04/14 05:43:07;;;;;;;9.02;3.30;;;;;;;2.46;50.46;94811.91;5041906;28;20037;-73
2023/04/14 05:45:33;;;;;;;7.10;3.63;;;;;;;2.85;51.28;94816.06;5015176;28;20051;-73
2023/04/14 05:47:58;;;;;;;6.22;2.67;;;;;;;3.14;48.17;94823.72;5022581;28;20073;-73
2023/04/14 05:50:23;;;;;;;9.43;3.67;;;;;;;2.96;50.97;94821.09;5039798;28;20052;-73
2023/04/14 05:52:49;;;;;;;8.07;2.80;;;;;;;2.64;47.03;94828.53;5041706;28;20110;-73
2023/04/14 05:55:15;;;;;;;8.65;2.50;;;;;;;2.55;47.86;94824.13;5039952;28;20067;-73
2023/04/14 05:57:40;;;;;;;7.18;3.38;;;;;;;3.03;48.50;94826.63;5023445;28;20098;-74
2023/04/14 06:00:07;;;;;;;7.18;3.10;;;;;;;3.24;47.23;94818.41;5023641;28;20209;-74
2023/04/14 06:02:32;;;;;;;12.18;5.43;;;;;;;3.91;48.19;94817.09;5005670;28;20049;-74
2023/04/14 06:05:00;;;;;;;13.45;7.00;;;;;;;4.32;47.23;94827.00;5039718;28;20113;-73
2023/04/14 06:07:26;;;;;;;11.20;5.70;;;;;;;4.62;46.43;94815.25;5039867;28;20041;-74
2023/04/14 06:09:52;;;;;;;10.60;5.43;;;;;;;4.87;46.09;94820.59;5022372;28;20028;-74
2023/04/14 06:12:17;;;;;;;7.55;2.60;;;;;;;4.84;42.41;94819.09;5039825;28;20033;-74
2023/04/14 06:14:43;;;;;;;5.90;2.00;;;;;;;4.62;42.81;94818.72;5039444;28;20532;-74
2023/04/14 06:17:08;;;;;;;6.20;2.40;;;;;;;4.54;45.67;94819.53;5023003;28;20131;-75
2023/04/14 06:19:33;;;;;;;6.95;3.08;;;;;;;4.88;45.31;94823.06;5038483;28;20028;-74
2023/04/14 06:21:59;;;;;;;3.92;2.00;;;;;;;4.72;43.89;94818.56;5035674;28;20055;-66
2023/04/14 06:24:25;;;;;;;4.82;2.97;;;;;;;4.77;44.63;94824.22;5039611;28;20248;-66
2023/04/14 06:26:50;;;;;;;8.93;2.70;;;;;;;4.95;44.08;94817.97;5033906;28;20033;-66
2023/04/14 06:29:16;;;;;;;11.13;2.88;;;;;;;4.83;43.95;94809.56;5037144;28;20037;-65
2023/04/14 06:31:41;;;;;;;5.70;2.40;;;;;;;5.17;42.57;94802.53;5039734;28;20033;-66
2023/04/14 06:34:07;;;;;;;7.07;2.67;;;;;;;5.11;43.23;94805.81;5040983;28;20508;-66
2023/04/14 06:36:32;;;;;;;8.00;2.58;;;;;;;5.16;42.86;94801.69;5040437;28;20405;-66
2023/04/14 06:38:57;;;;;;;7.97;2.80;;;;;;;4.99;45.70;94800.81;5037499;28;20036;-66
2023/04/14 06:41:23;;;;;;;8.02;3.15;;;;;;;4.69;44.85;94803.06;5038105;28;20040;-66
2023/04/14 06:43:49;;;;;;;5.00;2.63;;;;;;;5.08;44.59;94801.69;5038958;28;20931;-66
2023/04/14 06:46:16;;;;;;;8.07;3.15;;;;;;;4.57;44.28;94800.75;5037483;28;20039;-66
2023/04/14 06:48:41;;;;;;;7.05;2.38;;;;;;;4.10;44.13;94799.41;5039053;28;20036;-66
2023/04/14 06:51:09;;;;;;;10.00;3.67;;;;;;;5.14;45.23;94795.75;5035994;28;20041;-66
2023/04/14 06:53:34;;;;;;;8.52;2.75;;;;;;;5.26;41.85;94790.16;5036997;28;20082;-66
2023/04/14 06:56:00;;;;;;;8.55;2.65;;;;;;;5.59;43.55;94790.97;5040373;28;20434;-66
2023/04/14 06:58:29;;;;;;;7.32;2.83;;;;;;;5.94;41.04;94784.63;5036767;28;20394;-67
2023/04/14 07:00:55;;;;;;;;;;;;;;;6.01;41.52;94779.50;5041019;28;20041;-66
2023/04/14 07:03:20;;;;;;;10.27;4.32;;;;;;;6.01;41.46;94784.78;5031524;28;19925;-66
2023/04/14 07:05:46;;;;;;;8.25;3.58;;;;;;;6.04;40.48;94795.00;5036397;28;20099;-66
2023/04/14 07:08:11;;;;;;;10.43;6.65;;;;;;;6.23;41.83;94789.31;5036236;28;20029;-66
2023/04/14 07:10:36;;;;;;;9.73;5.00;;;;;;;6.20;41.75;94794.97;5037738;28;20044;-66
2023/04/14 07:13:02;;;;;;;10.63;6.00;;;;;;;6.23;42.42;94796.44;5038768;28;20230;-66
2023/04/14 07:15:28;;;;;;;11.45;5.70;;;;;;;6.55;40.63;94792.03;5037036;28;20521;-66
2023/04/14 07:17:54;;;;;;;10.02;2.78;;;;;;;6.49;39.19;94792.72;5033849;28;20563;-67
2023/04/14 07:20:19;;;;;;;13.18;4.88;;;;;;;6.71;38.48;94796.44;5035226;28;20040;-66
2023/04/14 07:22:45;;;;;;;7.65;3.25;;;;;;;6.86;38.66;94799.16;5033340;28;20048;-66
2023/04/14 07:25:10;;;;;;;13.73;6.40;;;;;;;6.95;38.42;94802.56;5037960;28;20050;-66
2023/04/14 07:27:39;;;;;;;13.70;3.13;;;;;;;7.07;37.29;94800.31;5035261;28;20600;-66
2023/04/14 07:30:04;;;;;;;;;;;;;;;6.52;40.33;94802.94;5040021;28;20154;-66
2023/04/14 07:32:30;;;;;;;15.15;8.50;;;;;;;7.00;38.57;94799.38;5039139;28;19920;-67
2023/04/14 07:34:57;;;;;;;18.30;8.82;;;;;;;7.06;39.08;94797.84;5040147;28;20316;-67
2023/04/14 07:37:23;;;;;;;18.67;12.90;;;;;;;7.04;40.04;94798.03;5034920;28;20051;-67
2023/04/14 07:39:48;;;;;;;17.63;11.35;;;;;;;7.50;39.05;94799.00;5034877;28;20041;-66
2023/04/14 07:42:13;;;;;;;12.77;6.95;;;;;;;7.90;36.13;94783.78;5037423;28;20037;-67
2023/04/14 07:44:39;;;;;;;20.83;14.10;;;;;;;8.29;38.55;94781.03;5038825;28;20036;-66
2023/04/14 07:47:04;;;;;;;26.33;15.00;;;;;;;8.76;37.66;94789.56;5038564;28;20048;-66
2023/04/14 07:49:30;;;;;;;22.35;14.25;;;;;;;9.07;36.94;94788.50;5039985;28;20489;-67
2023/04/14 07:51:56;;;;;;;19.50;14.02;;;;;;;9.37;36.36;94779.56;5038474;28;20052;-67
2023/04/14 07:54:22;;;;;;;16.17;9.88;;;;;;;9.38;35.01;94791.84;5036009;28;20560;-66
2023/04/14 07:56:47;;;;;;;17.15;8.80;;;;;;;9.77;35.32;94788.88;5036969;28;20045;-66
2023/04/14 07:59:13;;;;;;;34.25;25.58;;;;;;;9.96;35.56;94796.16;5039013;28;20033;-66
2023/04/14 08:01:38;;;;;;;45.03;32.70;;;;;;;9.62;36.12;94799.59;5037882;28;20112;-67
2023/04/14 08:04:04;;;;;;;27.95;21.60;;;;;;;9.92;35.93;94799.41;5037170;28;20041;-66
2023/04/14 08:06:29;;;;;;;42.30;33.35;;;;;;;9.97;35.89;94797.00;5037469;28;20553;-66
2023/04/14 08:08:55;;;;;;;34.03;22.65;;;;;;;9.88;34.93;94803.47;5039100;28;20110;-66
2023/04/14 08:11:20;;;;;;;32.83;22.08;;;;;;;10.06;35.33;94809.16;5036829;28;20041;-66
2023/04/14 08:13:45;;;;;;;37.40;27.77;;;;;;;10.18;35.24;94803.28;5038536;28;20036;-67
2023/04/14 08:16:11;;;;;;;33.90;23.75;;;;;;;10.31;34.51;94799.91;5037365;28;20103;-66
2023/04/14 08:18:38;;;;;;;13.82;7.55;;;;;;;10.34;32.55;94791.53;5039128;28;20033;-67
2023/04/14 08:21:04;;;;;;;22.52;16.77;;;;;;;10.27;33.13;94798.66;5037272;28;20132;-67
2023/04/14 08:23:29;;;;;;;31.42;20.50;;;;;;;10.51;33.72;94792.03;5036864;28;20041;-67
2023/04/14 08:25:54;;;;;;;39.33;27.33;;;;;;;10.58;34.12;94794.69;5035022;28;20029;-66
2023/04/14 08:28:20;;;;;;;42.03;30.33;;;;;;;10.83;33.12;94792.34;5037478;28;20032;-66
2023/04/14 08:30:46;;;;;;;30.88;20.75;;;;;;;11.14;33.20;94792.84;5037215;28;20033;-66
2023/04/14 08:33:12;;;;;;;43.25;31.08;;;;;;;11.26;32.97;94793.09;5036797;28;20103;-66
2023/04/14 08:35:37;;;;;;;31.40;22.83;;;;;;;11.87;31.89;94787.78;5037965;28;20053;-66
2023/04/14 08:38:02;;;;;;;29.25;20.23;;;;;;;11.88;31.82;94792.91;5033277;28;20497;-66
2023/04/14 08:40:39;;;;;;;41.08;28.67;;;;;;;12.14;31.37;94787.78;5039382;28;20037;-66
2023/04/14 08:43:05;;;;;;;38.00;27.67;;;;;;;12.64;30.51;94787.22;5036123;28;20091;-66
2023/04/14 08:45:33;;;;;;;31.25;23.13;;;;;;;12.50;30.35;94788.28;5028570;28;20037;-66
2023/04/14 08:48:00;;;;;;;34.97;24.08;;;;;;;13.08;29.71;94788.50;5035612;28;20116;-66
2023/04/14 08:50:26;;;;;;;28.02;20.77;;;;;;;13.38;28.86;94786.03;5039106;28;20041;-66
2023/04/14 08:52:54;;;;;;;33.33;21.65;;;;;;;13.42;29.04;94787.25;5037475;28;20041;-66
2023/04/14 08:55:19;;;;;;;30.17;20.67;;;;;;;13.55;29.08;94785.50;5041958;28;20048;-67
2023/04/14 08:57:45;;;;;;;24.67;14.75;;;;;;;13.74;28.83;94788.25;5042123;28;20037;-67
2023/04/14 09:00:11;;;;;;;17.95;13.10;;;;;;;14.44;28.16;94781.00;5039301;28;20056;-67
2023/04/14 09:02:38;;;;;;;8.52;4.07;;;;;;;14.55;27.66;94779.47;5036372;28;20545;-67
2023/04/14 09:05:05;;;;;;;6.13;2.33;;;;;;;14.25;27.08;94780.19;5038899;28;20053;-66
2023/04/14 09:07:31;;;;;;;7.43;2.45;;;;;;;14.69;27.09;94778.22;5036612;28;20137;-67
2023/04/14 09:09:59;;;;;;;18.23;12.25;;;;;;;14.43;27.32;94777.53;5039511;28;20559;-67
2023/04/14 09:12:26;;;;;;;14.65;8.73;;;;;;;14.14;27.28;94771.03;5036082;28;20036;-66
2023/04/14 09:14:51;;;;;;;20.83;11.00;;;;;;;14.07;28.02;94781.78;5042571;28;20052;-67
2023/04/14 09:17:17;;;;;;;17.10;9.93;;;;;;;13.95;27.98;94781.72;5034932;28;20361;-66
2023/04/14 09:19:42;;;;;;;17.30;9.57;;;;;;;14.37;27.11;94769.53;5038621;28;20071;-66
2023/04/14 09:22:08;;;;;;;12.20;7.63;;;;;;;14.48;27.14;94776.03;5021573;28;20037;-67
2023/04/14 09:24:33;;;;;;;11.48;3.85;;;;;;;14.34;26.82;94770.81;5039875;28;20025;-66
2023/04/14 09:27:02;;;;;;;8.38;2.92;;;;;;;13.22;27.14;94782.00;5039097;28;20057;-67
2023/04/14 09:29:28;;;;;;;13.23;7.75;;;;;;;13.35;28.41;94774.94;5041149;28;20127;-67
2023/04/14 09:31:53;;;;;;;18.95;11.90;;;;;;;13.61;28.19;94773.94;5038073;28;20032;-67
2023/04/14 09:34:19;;;;;;;12.45;7.95;;;;;;;12.60;28.88;94772.66;5038617;28;20047;-66
2023/04/14 09:37:04;;;;;;;8.30;2.50;;;;;;;11.15;29.11;94770.50;5040383;28;20114;-67
2023/04/14 09:39:33;;;;;;;7.40;2.28;;;;;;;11.00;29.20;94776.81;5041691;28;20103;-67
2023/04/14 09:41:59;;;;;;;12.13;5.38;;;;;;;12.23;28.76;94769.69;5040435;28;20029;-67
2023/04/14 09:44:24;;;;;;;8.18;2.20;;;;;;;12.23;29.46;94770.50;5034740;28;20405;-65
2023/04/14 09:47:06;;;;;;;8.10;2.40;;;;;;;12.23;29.91;94764.34;5038099;28;20037;-67
2023/04/14 09:49:34;;;;;;;8.23;3.97;;;;;;;12.85;28.83;94766.56;5040983;28;20037;-67
2023/04/14 09:52:03;;;;;;;7.53;2.65;;;;;;;11.52;29.40;94768.31;5039437;28;20068;-67
2023/04/14 09:54:28;;;;;;;7.70;2.30;;;;;;;11.16;28.10;94768.69;5041321;28;20040;-68
2023/04/14 09:56:53;;;;;;;13.75;6.70;;;;;;;9.67;32.46;94775.94;5041722;28;20032;-67
2023/04/14 09:59:31;;;;;;;10.85;4.70;;;;;;;12.20;29.64;94765.59;5041286;28;20036;-67
2023/04/14 10:01:57;;;;;;;10.33;3.30;;;;;;;10.66;29.50;94767.91;5039761;28;20389;-68
2023/04/14 10:04:25;;;;;;;10.82;6.10;;;;;;;10.94;28.37;94772.28;5039929;28;20311;-68
2023/04/14 10:06:54;;;;;;;8.53;2.03;;;;;;;10.22;28.74;94768.13;5041069;28;20087;-67
2023/04/14 10:09:21;;;;;;;15.13;7.82;;;;;;;10.77;29.93;94757.72;5041595;28;20722;-67
2023/04/14 10:11:46;;;;;;;9.70;2.55;;;;;;;10.82;28.90;94764.09;5040778;28;20597;-68
2023/04/14 10:14:12;;;;;;;9.55;3.85;;;;;;;10.82;28.89;94761.41;5022660;28;20060;-68
2023/04/14 10:16:37;;;;;;;8.48;2.42;;;;;;;10.22;30.15;94759.31;5039573;28;20037;-67
2023/04/14 10:19:02;;;;;;;8.07;3.50;;;;;;;12.23;27.22;94753.66;5040072;28;20102;-67
2023/04/14 10:21:28;;;;;;;6.70;2.20;;;;;;;11.20;27.66;94767.25;5039349;28;20036;-68
2023/04/14 10:23:56;;;;;;;6.03;2.00;;;;;;;11.29;28.36;94752.69;5040081;28;20036;-68
2023/04/14 10:26:22;;;;;;;8.45;2.20;;;;;;;9.00;30.80;94765.53;5037288;28;20423;-67
2023/04/14 10:28:53;;;;;;;5.85;2.00;;;;;;;10.89;29.06;94745.44;5036594;28;20160;-68
2023/04/14 10:31:23;;;;;;;8.18;2.20;;;;;;;11.88;27.72;94742.25;5038472;28;20078;-68
2023/04/14 10:33:48;;;;;;;5.50;2.13;;;;;;;12.40;27.31;94738.00;5038640;28;20453;-68
2023/04/14 10:36:25;;;;;;;9.98;3.67;;;;;;;11.57;28.23;94742.88;5036419;28;20044;-68
2023/04/14 10:38:57;;;;;;;7.88;2.47;;;;;;;11.36;28.00;94744.72;5040399;28;20033;-68
2023/04/14 10:41:22;;;;;;;9.13;3.72;;;;;;;12.44;27.74;94743.75;5039192;28;20086;-67
2023/04/14 10:43:47;;;;;;;7.30;2.58;;;;;;;13.18;26.70;94743.41;5020164;28;20045;-67
2023/04/14 10:46:13;;;;;;;11.55;5.32;;;;;;;12.59;26.63;94736.31;5035974;28;20056;-67
2023/04/14 10:48:39;;;;;;;36.90;27.23;;;;;;;12.78;28.75;94739.91;5039043;28;20028;-66
2023/04/14 10:51:09;;;;;;;6.55;2.50;;;;;;;9.87;30.70;94738.84;5033932;28;20068;-67
2023/04/14 10:53:45;;;;;;;34.55;26.02;;;;;;;12.01;29.79;94733.38;5037925;28;20057;-66
2023/04/14 10:56:13;;;;;;;28.85;22.23;;;;;;;12.93;25.73;94736.13;5039851;28;20045;-66
2023/04/14 10:58:39;;;;;;;24.23;17.92;;;;;;;13.45;28.59;94729.84;5037556;28;20052;-67
2023/04/14 11:01:29;;;;;;;18.13;10.18;;;;;;;13.60;27.92;94726.81;5038070;28;20338;-67
2023/04/14 11:03:55;;;;;;;26.52;18.95;;;;;;;13.99;27.84;94726.72;5033489;28;20358;-68
2023/04/14 11:06:45;;;;;;;20.85;16.40;;;;;;;14.79;25.35;94718.00;5039163;28;20437;-67
2023/04/14 11:09:37;;;;;;;27.63;21.90;;;;;;;15.15;26.00;94710.88;5040343;28;20598;-66
2023/04/14 11:12:22;;;;;;;5.55;2.10;;;;;;;15.73;22.22;94707.72;5038269;28;20086;-67
2023/04/14 11:14:47;;;;;;;6.07;1.95;;;;;;;15.23;20.59;94715.09;5035300;28;20052;-75
2023/04/14 11:17:21;;;;;;;4.43;1.80;;;;;;;15.11;20.49;94715.06;5038689;28;20032;-75
2023/04/14 11:19:47;;;;;;;4.82;1.88;;;;;;;13.62;20.19;94716.75;5040052;28;20223;-76
2023/04/14 11:22:12;;;;;;;5.72;1.85;;;;;;;13.36;20.65;94715.91;5037449;28;20368;-75
2023/04/14 11:24:37;;;;;;;6.35;2.92;;;;;;;10.78;25.04;94716.75;5038766;28;20024;-76
2023/04/14 11:27:03;;;;;;;8.15;4.05;;;;;;;12.73;25.32;94709.53;5036087;28;20490;-75
2023/04/14 11:29:29;;;;;;;13.63;4.30;;;;;;;12.89;25.00;94703.66;5038999;28;20028;-75
2023/04/14 11:32:01;;;;;;;6.10;2.53;;;;;;;14.11;23.28;94700.00;5037413;28;20482;-75
2023/04/14 11:34:27;;;;;;;6.68;2.20;;;;;;;13.53;21.51;94710.84;5039429;28;20174;-75